sensor_id;sensor_type;location;lat;lon;timestamp;P1;durP1;ratioP1;P2;durP2;ratioP2
20251;SDS011;10284;58.364;15.550;2024-01-07T00:01:55;4.90;;;2.75;;
20251;SDS011;10284;58.364;15.550;2024-01-07T00:04:21;5.85;;;2.70;;
20251;SDS011;10284;58.364;15.550;2024-01-07T00:06:46;6.50;;;3.17;;
20251;SDS011;10284;58.364;15.550;2024-01-07T00:09:12;5.90;;;2.80;;
20251;SDS011;10284;58.364;15.550;2024-01-07T00:11:37;5.97;;;3.25;;
20251;SDS011;10284;58.364;15.550;2024-01-07T00:14:04;5.65;;;3.00;;
20251;SDS011;10284;58.364;15.550;2024-01-07T00:16:29;7.30;;;3.33;;
20251;SDS011;10284;58.364;15.550;2024-01-07T00:18:54;3.33;;;2.75;;
20251;SDS011;10284;58.364;15.550;2024-01-07T00:21:20;4.43;;;2.72;;
20251;SDS011;10284;58.364;15.550;2024-01-07T00:23:45;5.30;;;3.40;;
20251;SDS011;10284;58.364;15.550;2024-01-07T00:26:10;5.60;;;3.28;;
20251;SDS011;10284;58.364;15.550;2024-01-07T00:28:36;5.50;;;3.05;;
20251;SDS011;10284;58.364;15.550;2024-01-07T00:31:01;6.95;;;3.10;;
20251;SDS011;10284;58.364;15.550;2024-01-07T00:33:27;5.35;;;3.05;;
20251;SDS011;10284;58.364;15.550;2024-01-07T00:35:52;5.97;;;3.30;;
20251;SDS011;10284;58.364;15.550;2024-01-07T00:38:17;4.25;;;2.90;;
20251;SDS011;10284;58.364;15.550;2024-01-07T00:40:43;5.32;;;3.13;;
20251;SDS011;10284;58.364;15.550;2024-01-07T00:43:08;5.97;;;3.15;;
20251;SDS011;10284;58.364;15.550;2024-01-07T00:45:34;7.28;;;3.25;;
20251;SDS011;10284;58.364;15.550;2024-01-07T00:47:59;5.78;;;2.70;;
20251;SDS011;10284;58.364;15.550;2024-01-07T00:50:24;3.35;;;2.75;;
20251;SDS011;10284;58.364;15.550;2024-01-07T00:52:50;7.95;;;2.85;;
20251;SDS011;10284;58.364;15.550;2024-01-07T00:55:16;4.82;;;2.95;;
20251;SDS011;10284;58.364;15.550;2024-01-07T00:57:42;7.40;;;3.15;;
20251;SDS011;10284;58.364;15.550;2024-01-07T01:00:07;4.47;;;3.22;;
20251;SDS011;10284;58.364;15.550;2024-01-07T01:02:33;5.82;;;3.15;;
20251;SDS011;10284;58.364;15.550;2024-01-07T01:04:59;5.60;;;3.20;;
20251;SDS011;10284;58.364;15.550;2024-01-07T01:07:24;6.60;;;3.13;;
20251;SDS011;10284;58.364;15.550;2024-01-07T01:09:50;4.38;;;2.85;;
20251;SDS011;10284;58.364;15.550;2024-01-07T01:12:15;5.43;;;3.17;;
20251;SDS011;10284;58.364;15.550;2024-01-07T01:14:40;7.22;;;3.72;;
20251;SDS011;10284;58.364;15.550;2024-01-07T01:17:06;5.90;;;3.50;;
20251;SDS011;10284;58.364;15.550;2024-01-07T01:19:31;4.25;;;3.08;;
20251;SDS011;10284;58.364;15.550;2024-01-07T01:21:57;5.00;;;2.83;;
20251;SDS011;10284;58.364;15.550;2024-01-07T01:24:22;6.05;;;3.75;;
20251;SDS011;10284;58.364;15.550;2024-01-07T01:26:48;6.80;;;3.78;;
20251;SDS011;10284;58.364;15.550;2024-01-07T01:29:13;6.47;;;3.40;;
20251;SDS011;10284;58.364;15.550;2024-01-07T01:31:39;4.07;;;3.15;;
20251;SDS011;10284;58.364;15.550;2024-01-07T01:34:04;4.25;;;3.08;;
20251;SDS011;10284;58.364;15.550;2024-01-07T01:36:32;6.35;;;3.50;;
20251;SDS011;10284;58.364;15.550;2024-01-07T01:38:57;6.07;;;3.35;;
20251;SDS011;10284;58.364;15.550;2024-01-07T01:41:23;6.13;;;3.33;;
20251;SDS011;10284;58.364;15.550;2024-01-07T01:43:48;4.65;;;3.38;;
20251;SDS011;10284;58.364;15.550;2024-01-07T01:46:14;5.72;;;3.75;;
20251;SDS011;10284;58.364;15.550;2024-01-07T01:48:39;3.85;;;2.92;;
20251;SDS011;10284;58.364;15.550;2024-01-07T01:51:05;6.35;;;3.30;;
20251;SDS011;10284;58.364;15.550;2024-01-07T01:53:31;8.00;;;4.05;;
20251;SDS011;10284;58.364;15.550;2024-01-07T01:55:57;5.85;;;3.33;;
20251;SDS011;10284;58.364;15.550;2024-01-07T01:58:23;6.72;;;3.70;;
20251;SDS011;10284;58.364;15.550;2024-01-07T02:00:49;8.88;;;3.55;;
20251;SDS011;10284;58.364;15.550;2024-01-07T02:03:16;8.25;;;4.07;;
20251;SDS011;10284;58.364;15.550;2024-01-07T02:05:42;4.28;;;3.03;;
20251;SDS011;10284;58.364;15.550;2024-01-07T02:08:07;6.15;;;4.03;;
20251;SDS011;10284;58.364;15.550;2024-01-07T02:10:33;8.88;;;3.92;;
20251;SDS011;10284;58.364;15.550;2024-01-07T02:13:04;9.88;;;4.50;;
20251;SDS011;10284;58.364;15.550;2024-01-07T02:15:30;6.50;;;3.78;;
20251;SDS011;10284;58.364;15.550;2024-01-07T02:17:55;6.03;;;4.00;;
20251;SDS011;10284;58.364;15.550;2024-01-07T02:20:21;7.63;;;4.00;;
20251;SDS011;10284;58.364;15.550;2024-01-07T02:22:46;7.88;;;4.15;;
20251;SDS011;10284;58.364;15.550;2024-01-07T02:25:12;7.93;;;4.80;;
20251;SDS011;10284;58.364;15.550;2024-01-07T02:27:37;8.07;;;4.50;;
20251;SDS011;10284;58.364;15.550;2024-01-07T02:30:02;7.85;;;4.15;;
20251;SDS011;10284;58.364;15.550;2024-01-07T02:32:28;9.68;;;4.90;;
20251;SDS011;10284;58.364;15.550;2024-01-07T02:34:57;7.55;;;4.57;;
20251;SDS011;10284;58.364;15.550;2024-01-07T02:37:22;6.78;;;4.78;;
20251;SDS011;10284;58.364;15.550;2024-01-07T02:39:48;9.18;;;4.63;;
20251;SDS011;10284;58.364;15.550;2024-01-07T02:42:13;8.48;;;4.50;;
20251;SDS011;10284;58.364;15.550;2024-01-07T02:44:38;9.98;;;4.18;;
20251;SDS011;10284;58.364;15.550;2024-01-07T02:47:04;13.25;;;4.50;;
20251;SDS011;10284;58.364;15.550;2024-01-07T02:49:29;11.32;;;4.60;;
20251;SDS011;10284;58.364;15.550;2024-01-07T02:51:55;10.00;;;5.10;;
20251;SDS011;10284;58.364;15.550;2024-01-07T02:54:20;11.10;;;4.82;;
20251;SDS011;10284;58.364;15.550;2024-01-07T02:56:45;9.50;;;4.53;;
20251;SDS011;10284;58.364;15.550;2024-01-07T02:59:11;7.80;;;4.25;;
20251;SDS011;10284;58.364;15.550;2024-01-07T03:01:36;11.48;;;4.63;;
20251;SDS011;10284;58.364;15.550;2024-01-07T03:04:06;8.20;;;4.45;;
20251;SDS011;10284;58.364;15.550;2024-01-07T03:06:33;8.90;;;4.75;;
20251;SDS011;10284;58.364;15.550;2024-01-07T03:08:58;8.43;;;5.32;;
20251;SDS011;10284;58.364;15.550;2024-01-07T03:11:23;9.63;;;4.72;;
20251;SDS011;10284;58.364;15.550;2024-01-07T03:13:49;8.50;;;4.78;;
20251;SDS011;10284;58.364;15.550;2024-01-07T03:16:20;8.45;;;4.78;;
20251;SDS011;10284;58.364;15.550;2024-01-07T03:18:46;7.30;;;4.00;;
20251;SDS011;10284;58.364;15.550;2024-01-07T03:21:18;8.15;;;4.50;;
20251;SDS011;10284;58.364;15.550;2024-01-07T03:23:44;6.65;;;3.92;;
20251;SDS011;10284;58.364;15.550;2024-01-07T03:26:10;9.55;;;4.68;;
20251;SDS011;10284;58.364;15.550;2024-01-07T03:28:36;7.97;;;4.88;;
20251;SDS011;10284;58.364;15.550;2024-01-07T03:31:08;8.32;;;4.43;;
20251;SDS011;10284;58.364;15.550;2024-01-07T03:33:34;7.47;;;4.28;;
20251;SDS011;10284;58.364;15.550;2024-01-07T03:35:59;8.75;;;4.40;;
20251;SDS011;10284;58.364;15.550;2024-01-07T03:38:25;7.47;;;3.97;;
20251;SDS011;10284;58.364;15.550;2024-01-07T03:40:50;8.85;;;4.20;;
20251;SDS011;10284;58.364;15.550;2024-01-07T03:43:16;8.25;;;4.22;;
20251;SDS011;10284;58.364;15.550;2024-01-07T03:45:41;9.40;;;4.60;;
20251;SDS011;10284;58.364;15.550;2024-01-07T03:48:08;7.95;;;4.25;;
20251;SDS011;10284;58.364;15.550;2024-01-07T03:50:33;8.13;;;4.40;;
20251;SDS011;10284;58.364;15.550;2024-01-07T03:52:59;9.18;;;4.00;;
20251;SDS011;10284;58.364;15.550;2024-01-07T03:55:24;7.07;;;4.13;;
20251;SDS011;10284;58.364;15.550;2024-01-07T03:57:50;7.97;;;4.10;;
20251;SDS011;10284;58.364;15.550;2024-01-07T04:00:15;6.93;;;3.67;;
20251;SDS011;10284;58.364;15.550;2024-01-07T04:02:41;8.80;;;4.75;;
20251;SDS011;10284;58.364;15.550;2024-01-07T04:05:07;9.02;;;4.07;;
20251;SDS011;10284;58.364;15.550;2024-01-07T04:07:32;8.10;;;4.53;;
20251;SDS011;10284;58.364;15.550;2024-01-07T04:09:59;9.65;;;4.13;;
20251;SDS011;10284;58.364;15.550;2024-01-07T04:12:24;8.60;;;4.40;;
20251;SDS011;10284;58.364;15.550;2024-01-07T04:14:50;7.72;;;4.50;;
20251;SDS011;10284;58.364;15.550;2024-01-07T04:17:15;8.70;;;3.97;;
20251;SDS011;10284;58.364;15.550;2024-01-07T04:19:40;9.57;;;4.43;;
20251;SDS011;10284;58.364;15.550;2024-01-07T04:22:06;9.23;;;4.60;;
20251;SDS011;10284;58.364;15.550;2024-01-07T04:24:31;8.80;;;4.85;;
20251;SDS011;10284;58.364;15.550;2024-01-07T04:26:56;9.20;;;5.13;;
20251;SDS011;10284;58.364;15.550;2024-01-07T04:29:22;8.90;;;4.43;;
20251;SDS011;10284;58.364;15.550;2024-01-07T04:31:47;9.98;;;4.57;;
20251;SDS011;10284;58.364;15.550;2024-01-07T04:34:13;8.80;;;3.92;;
20251;SDS011;10284;58.364;15.550;2024-01-07T04:36:38;6.22;;;3.60;;
20251;SDS011;10284;58.364;15.550;2024-01-07T04:39:03;14.13;;;4.75;;
20251;SDS011;10284;58.364;15.550;2024-01-07T04:41:29;7.28;;;4.38;;
20251;SDS011;10284;58.364;15.550;2024-01-07T04:43:54;8.77;;;4.57;;
20251;SDS011;10284;58.364;15.550;2024-01-07T04:46:20;8.18;;;4.90;;
20251;SDS011;10284;58.364;15.550;2024-01-07T04:48:45;8.82;;;4.38;;
20251;SDS011;10284;58.364;15.550;2024-01-07T04:51:10;9.20;;;4.45;;
20251;SDS011;10284;58.364;15.550;2024-01-07T04:53:36;8.68;;;5.30;;
20251;SDS011;10284;58.364;15.550;2024-01-07T04:56:02;10.38;;;5.30;;
20251;SDS011;10284;58.364;15.550;2024-01-07T04:58:27;8.65;;;4.72;;
20251;SDS011;10284;58.364;15.550;2024-01-07T05:00:53;8.45;;;4.85;;
20251;SDS011;10284;58.364;15.550;2024-01-07T05:03:18;8.82;;;4.70;;
20251;SDS011;10284;58.364;15.550;2024-01-07T05:05:43;7.55;;;4.70;;
20251;SDS011;10284;58.364;15.550;2024-01-07T05:08:09;9.10;;;4.25;;
20251;SDS011;10284;58.364;15.550;2024-01-07T05:10:34;7.97;;;5.18;;
20251;SDS011;10284;58.364;15.550;2024-01-07T05:13:00;6.97;;;4.15;;
20251;SDS011;10284;58.364;15.550;2024-01-07T05:15:30;8.73;;;4.57;;
20251;SDS011;10284;58.364;15.550;2024-01-07T05:17:55;9.20;;;5.10;;
20251;SDS011;10284;58.364;15.550;2024-01-07T05:20:21;8.23;;;4.75;;
20251;SDS011;10284;58.364;15.550;2024-01-07T05:22:46;9.98;;;5.55;;
20251;SDS011;10284;58.364;15.550;2024-01-07T05:25:11;8.85;;;4.95;;
20251;SDS011;10284;58.364;15.550;2024-01-07T05:27:37;8.30;;;5.30;;
20251;SDS011;10284;58.364;15.550;2024-01-07T05:30:02;8.55;;;4.57;;
20251;SDS011;10284;58.364;15.550;2024-01-07T05:32:28;6.90;;;4.25;;
20251;SDS011;10284;58.364;15.550;2024-01-07T05:34:54;7.85;;;4.63;;
20251;SDS011;10284;58.364;15.550;2024-01-07T05:37:19;8.65;;;4.78;;
20251;SDS011;10284;58.364;15.550;2024-01-07T05:39:44;9.55;;;4.38;;
20251;SDS011;10284;58.364;15.550;2024-01-07T05:42:10;7.82;;;4.95;;
20251;SDS011;10284;58.364;15.550;2024-01-07T05:44:35;7.63;;;4.07;;
20251;SDS011;10284;58.364;15.550;2024-01-07T05:47:01;10.73;;;4.57;;
20251;SDS011;10284;58.364;15.550;2024-01-07T05:49:26;8.05;;;4.18;;
20251;SDS011;10284;58.364;15.550;2024-01-07T05:51:52;9.88;;;4.93;;
20251;SDS011;10284;58.364;15.550;2024-01-07T05:54:17;7.53;;;4.13;;
20251;SDS011;10284;58.364;15.550;2024-01-07T05:56:43;7.10;;;4.18;;
20251;SDS011;10284;58.364;15.550;2024-01-07T05:59:08;9.68;;;4.70;;
20251;SDS011;10284;58.364;15.550;2024-01-07T06:01:33;6.97;;;4.13;;
20251;SDS011;10284;58.364;15.550;2024-01-07T06:04:00;8.60;;;4.13;;
20251;SDS011;10284;58.364;15.550;2024-01-07T06:06:25;9.52;;;4.53;;
20251;SDS011;10284;58.364;15.550;2024-01-07T06:08:50;9.00;;;4.93;;
20251;SDS011;10284;58.364;15.550;2024-01-07T06:11:16;9.43;;;4.53;;
20251;SDS011;10284;58.364;15.550;2024-01-07T06:13:45;6.55;;;4.30;;
20251;SDS011;10284;58.364;15.550;2024-01-07T06:16:10;9.85;;;4.10;;
20251;SDS011;10284;58.364;15.550;2024-01-07T06:18:35;8.10;;;4.50;;
20251;SDS011;10284;58.364;15.550;2024-01-07T06:21:01;7.10;;;4.32;;
20251;SDS011;10284;58.364;15.550;2024-01-07T06:23:27;7.57;;;4.35;;
20251;SDS011;10284;58.364;15.550;2024-01-07T06:25:52;9.05;;;4.78;;
20251;SDS011;10284;58.364;15.550;2024-01-07T06:28:18;7.65;;;4.07;;
20251;SDS011;10284;58.364;15.550;2024-01-07T06:30:43;6.85;;;4.28;;
20251;SDS011;10284;58.364;15.550;2024-01-07T06:33:08;7.65;;;4.47;;
20251;SDS011;10284;58.364;15.550;2024-01-07T06:35:34;8.00;;;4.35;;
20251;SDS011;10284;58.364;15.550;2024-01-07T06:37:59;10.82;;;5.15;;
20251;SDS011;10284;58.364;15.550;2024-01-07T06:40:25;6.28;;;4.18;;
20251;SDS011;10284;58.364;15.550;2024-01-07T06:42:50;7.38;;;4.28;;
20251;SDS011;10284;58.364;15.550;2024-01-07T06:45:16;7.88;;;4.30;;
20251;SDS011;10284;58.364;15.550;2024-01-07T06:47:42;7.22;;;4.65;;
20251;SDS011;10284;58.364;15.550;2024-01-07T06:50:08;9.23;;;4.65;;
20251;SDS011;10284;58.364;15.550;2024-01-07T06:52:35;9.98;;;4.35;;
20251;SDS011;10284;58.364;15.550;2024-01-07T06:55:00;10.55;;;4.03;;
20251;SDS011;10284;58.364;15.550;2024-01-07T06:57:26;11.23;;;4.93;;
20251;SDS011;10284;58.364;15.550;2024-01-07T06:59:51;7.22;;;4.40;;
20251;SDS011;10284;58.364;15.550;2024-01-07T07:02:17;9.10;;;5.00;;
20251;SDS011;10284;58.364;15.550;2024-01-07T07:04:42;9.38;;;4.75;;
20251;SDS011;10284;58.364;15.550;2024-01-07T07:07:07;7.35;;;4.40;;
20251;SDS011;10284;58.364;15.550;2024-01-07T07:09:33;8.80;;;4.80;;
20251;SDS011;10284;58.364;15.550;2024-01-07T07:11:59;6.93;;;4.68;;
20251;SDS011;10284;58.364;15.550;2024-01-07T07:14:24;6.93;;;4.85;;
20251;SDS011;10284;58.364;15.550;2024-01-07T07:16:50;7.80;;;4.35;;
20251;SDS011;10284;58.364;15.550;2024-01-07T07:19:15;7.70;;;4.40;;
20251;SDS011;10284;58.364;15.550;2024-01-07T07:21:41;7.57;;;4.72;;
20251;SDS011;10284;58.364;15.550;2024-01-07T07:24:07;7.75;;;4.82;;
20251;SDS011;10284;58.364;15.550;2024-01-07T07:26:33;6.60;;;4.32;;
20251;SDS011;10284;58.364;15.550;2024-01-07T07:29:00;9.07;;;5.13;;
20251;SDS011;10284;58.364;15.550;2024-01-07T07:31:27;8.90;;;5.10;;
20251;SDS011;10284;58.364;15.550;2024-01-07T07:33:52;8.02;;;4.80;;
20251;SDS011;10284;58.364;15.550;2024-01-07T07:36:17;8.48;;;5.05;;
20251;SDS011;10284;58.364;15.550;2024-01-07T07:38:43;7.60;;;4.78;;
20251;SDS011;10284;58.364;15.550;2024-01-07T07:41:08;8.02;;;4.68;;
20251;SDS011;10284;58.364;15.550;2024-01-07T07:43:33;10.55;;;4.97;;
20251;SDS011;10284;58.364;15.550;2024-01-07T07:45:59;13.68;;;5.38;;
20251;SDS011;10284;58.364;15.550;2024-01-07T07:48:26;9.80;;;4.70;;
20251;SDS011;10284;58.364;15.550;2024-01-07T07:50:53;7.53;;;4.40;;
20251;SDS011;10284;58.364;15.550;2024-01-07T07:53:18;7.40;;;4.40;;
20251;SDS011;10284;58.364;15.550;2024-01-07T07:55:43;7.88;;;4.40;;
20251;SDS011;10284;58.364;15.550;2024-01-07T07:58:09;7.78;;;4.50;;
20251;SDS011;10284;58.364;15.550;2024-01-07T08:00:34;8.68;;;4.57;;
20251;SDS011;10284;58.364;15.550;2024-01-07T08:03:00;8.48;;;4.40;;
20251;SDS011;10284;58.364;15.550;2024-01-07T08:05:25;7.93;;;4.50;;
20251;SDS011;10284;58.364;15.550;2024-01-07T08:07:50;6.70;;;4.65;;
20251;SDS011;10284;58.364;15.550;2024-01-07T08:10:16;9.57;;;4.72;;
20251;SDS011;10284;58.364;15.550;2024-01-07T08:12:41;6.60;;;4.35;;
20251;SDS011;10284;58.364;15.550;2024-01-07T08:15:07;7.80;;;4.30;;
20251;SDS011;10284;58.364;15.550;2024-01-07T08:17:32;11.25;;;4.90;;
20251;SDS011;10284;58.364;15.550;2024-01-07T08:19:58;8.85;;;4.32;;
20251;SDS011;10284;58.364;15.550;2024-01-07T08:22:23;10.38;;;4.35;;
20251;SDS011;10284;58.364;15.550;2024-01-07T08:24:49;9.25;;;4.45;;
20251;SDS011;10284;58.364;15.550;2024-01-07T08:27:15;7.80;;;4.25;;
20251;SDS011;10284;58.364;15.550;2024-01-07T08:29:42;6.32;;;4.18;;
20251;SDS011;10284;58.364;15.550;2024-01-07T08:32:09;8.25;;;4.28;;
20251;SDS011;10284;58.364;15.550;2024-01-07T08:34:34;6.85;;;3.88;;
20251;SDS011;10284;58.364;15.550;2024-01-07T08:37:00;6.60;;;3.70;;
20251;SDS011;10284;58.364;15.550;2024-01-07T08:39:25;7.88;;;4.15;;
20251;SDS011;10284;58.364;15.550;2024-01-07T08:41:51;8.90;;;4.30;;
20251;SDS011;10284;58.364;15.550;2024-01-07T08:44:16;8.02;;;4.45;;
20251;SDS011;10284;58.364;15.550;2024-01-07T08:46:42;7.03;;;4.38;;
20251;SDS011;10284;58.364;15.550;2024-01-07T08:49:07;7.28;;;4.53;;
20251;SDS011;10284;58.364;15.550;2024-01-07T08:51:32;8.38;;;4.60;;
20251;SDS011;10284;58.364;15.550;2024-01-07T08:53:58;7.75;;;3.95;;
20251;SDS011;10284;58.364;15.550;2024-01-07T08:56:24;6.18;;;3.78;;
20251;SDS011;10284;58.364;15.550;2024-01-07T08:58:50;6.10;;;4.40;;
20251;SDS011;10284;58.364;15.550;2024-01-07T09:01:17;8.55;;;4.22;;
20251;SDS011;10284;58.364;15.550;2024-01-07T09:03:42;7.25;;;4.88;;
20251;SDS011;10284;58.364;15.550;2024-01-07T09:06:08;7.47;;;4.25;;
20251;SDS011;10284;58.364;15.550;2024-01-07T09:08:33;8.30;;;4.60;;
20251;SDS011;10284;58.364;15.550;2024-01-07T09:11:00;7.20;;;4.03;;
20251;SDS011;10284;58.364;15.550;2024-01-07T09:13:26;6.97;;;4.07;;
20251;SDS011;10284;58.364;15.550;2024-01-07T09:15:52;7.22;;;4.07;;
20251;SDS011;10284;58.364;15.550;2024-01-07T09:18:17;9.32;;;4.30;;
20251;SDS011;10284;58.364;15.550;2024-01-07T09:20:43;10.02;;;4.63;;
20251;SDS011;10284;58.364;15.550;2024-01-07T09:23:09;9.27;;;4.60;;
20251;SDS011;10284;58.364;15.550;2024-01-07T09:25:34;7.68;;;4.18;;
20251;SDS011;10284;58.364;15.550;2024-01-07T09:27:59;8.60;;;4.75;;
20251;SDS011;10284;58.364;15.550;2024-01-07T09:30:25;6.78;;;4.07;;
20251;SDS011;10284;58.364;15.550;2024-01-07T09:32:51;8.30;;;5.00;;
20251;SDS011;10284;58.364;15.550;2024-01-07T09:35:16;7.35;;;4.95;;
20251;SDS011;10284;58.364;15.550;2024-01-07T09:37:41;10.73;;;5.35;;
20251;SDS011;10284;58.364;15.550;2024-01-07T09:40:07;8.95;;;4.88;;
20251;SDS011;10284;58.364;15.550;2024-01-07T09:42:33;7.07;;;4.68;;
20251;SDS011;10284;58.364;15.550;2024-01-07T09:45:00;11.52;;;5.57;;
20251;SDS011;10284;58.364;15.550;2024-01-07T09:47:28;7.25;;;4.72;;
20251;SDS011;10284;58.364;15.550;2024-01-07T09:49:54;9.63;;;5.25;;
20251;SDS011;10284;58.364;15.550;2024-01-07T09:52:20;7.60;;;4.90;;
20251;SDS011;10284;58.364;15.550;2024-01-07T09:54:45;7.88;;;5.13;;
20251;SDS011;10284;58.364;15.550;2024-01-07T09:57:16;7.75;;;4.88;;
20251;SDS011;10284;58.364;15.550;2024-01-07T09:59:41;8.13;;;4.50;;
20251;SDS011;10284;58.364;15.550;2024-01-07T10:02:07;9.60;;;5.40;;
20251;SDS011;10284;58.364;15.550;2024-01-07T10:04:32;7.55;;;4.78;;
20251;SDS011;10284;58.364;15.550;2024-01-07T10:06:58;7.40;;;4.55;;
20251;SDS011;10284;58.364;15.550;2024-01-07T10:09:24;8.55;;;4.00;;
20251;SDS011;10284;58.364;15.550;2024-01-07T10:11:51;7.35;;;4.45;;
20251;SDS011;10284;58.364;15.550;2024-01-07T10:14:17;7.20;;;4.32;;
20251;SDS011;10284;58.364;15.550;2024-01-07T10:16:42;5.75;;;3.97;;
20251;SDS011;10284;58.364;15.550;2024-01-07T10:19:07;8.15;;;4.30;;
20251;SDS011;10284;58.364;15.550;2024-01-07T10:21:33;8.00;;;4.97;;
20251;SDS011;10284;58.364;15.550;2024-01-07T10:24:09;8.10;;;4.45;;
20251;SDS011;10284;58.364;15.550;2024-01-07T10:26:38;7.72;;;4.78;;
20251;SDS011;10284;58.364;15.550;2024-01-07T10:29:04;7.13;;;4.45;;
20251;SDS011;10284;58.364;15.550;2024-01-07T10:31:31;7.90;;;4.90;;
20251;SDS011;10284;58.364;15.550;2024-01-07T10:33:56;8.07;;;4.82;;
20251;SDS011;10284;58.364;15.550;2024-01-07T10:36:22;8.60;;;4.82;;
20251;SDS011;10284;58.364;15.550;2024-01-07T10:38:49;7.70;;;4.68;;
20251;SDS011;10284;58.364;15.550;2024-01-07T10:41:15;7.68;;;4.30;;
20251;SDS011;10284;58.364;15.550;2024-01-07T10:43:43;5.75;;;3.97;;
20251;SDS011;10284;58.364;15.550;2024-01-07T10:46:12;5.57;;;4.20;;
20251;SDS011;10284;58.364;15.550;2024-01-07T10:48:38;6.95;;;4.18;;
20251;SDS011;10284;58.364;15.550;2024-01-07T10:51:28;9.90;;;4.07;;
20251;SDS011;10284;58.364;15.550;2024-01-07T10:53:55;7.40;;;4.38;;
20251;SDS011;10284;58.364;15.550;2024-01-07T10:56:24;5.85;;;4.00;;
20251;SDS011;10284;58.364;15.550;2024-01-07T10:58:54;6.50;;;4.32;;
20251;SDS011;10284;58.364;15.550;2024-01-07T11:01:19;6.82;;;4.15;;
20251;SDS011;10284;58.364;15.550;2024-01-07T11:09:35;8.02;;;4.10;;
20251;SDS011;10284;58.364;15.550;2024-01-07T11:12:03;6.70;;;3.90;;
20251;SDS011;10284;58.364;15.550;2024-01-07T11:14:42;7.57;;;4.18;;
20251;SDS011;10284;58.364;15.550;2024-01-07T11:17:39;6.78;;;4.45;;
20251;SDS011;10284;58.364;15.550;2024-01-07T11:20:05;6.68;;;4.20;;
20251;SDS011;10284;58.364;15.550;2024-01-07T11:22:33;7.75;;;4.30;;
20251;SDS011;10284;58.364;15.550;2024-01-07T11:24:59;6.40;;;4.28;;
20251;SDS011;10284;58.364;15.550;2024-01-07T11:27:30;5.68;;;4.00;;
20251;SDS011;10284;58.364;15.550;2024-01-07T11:29:56;6.93;;;4.15;;
20251;SDS011;10284;58.364;15.550;2024-01-07T11:32:33;8.77;;;4.63;;
20251;SDS011;10284;58.364;15.550;2024-01-07T11:35:00;6.47;;;4.40;;
20251;SDS011;10284;58.364;15.550;2024-01-07T11:37:27;7.63;;;4.18;;
20251;SDS011;10284;58.364;15.550;2024-01-07T11:39:56;6.95;;;4.18;;
20251;SDS011;10284;58.364;15.550;2024-01-07T11:42:25;6.68;;;4.22;;
20251;SDS011;10284;58.364;15.550;2024-01-07T11:44:51;7.57;;;4.80;;
20251;SDS011;10284;58.364;15.550;2024-01-07T11:47:19;9.65;;;4.93;;
20251;SDS011;10284;58.364;15.550;2024-01-07T11:49:45;6.10;;;3.97;;
20251;SDS011;10284;58.364;15.550;2024-01-07T11:52:11;7.30;;;4.75;;
20251;SDS011;10284;58.364;15.550;2024-01-07T11:54:37;8.15;;;4.65;;
20251;SDS011;10284;58.364;15.550;2024-01-07T11:57:03;7.40;;;4.53;;
20251;SDS011;10284;58.364;15.550;2024-01-07T11:59:29;6.75;;;4.30;;
20251;SDS011;10284;58.364;15.550;2024-01-07T12:01:55;7.13;;;4.50;;
20251;SDS011;10284;58.364;15.550;2024-01-07T12:04:20;8.10;;;4.78;;
20251;SDS011;10284;58.364;15.550;2024-01-07T12:06:46;8.43;;;4.35;;
20251;SDS011;10284;58.364;15.550;2024-01-07T12:09:12;7.75;;;4.85;;
20251;SDS011;10284;58.364;15.550;2024-01-07T12:11:39;7.60;;;4.43;;
20251;SDS011;10284;58.364;15.550;2024-01-07T12:14:06;7.78;;;4.55;;
20251;SDS011;10284;58.364;15.550;2024-01-07T12:16:37;8.48;;;4.60;;
20251;SDS011;10284;58.364;15.550;2024-01-07T12:19:03;8.68;;;5.40;;
20251;SDS011;10284;58.364;15.550;2024-01-07T12:21:28;10.40;;;5.75;;
20251;SDS011;10284;58.364;15.550;2024-01-07T12:23:54;9.30;;;5.75;;
20251;SDS011;10284;58.364;15.550;2024-01-07T12:26:25;13.18;;;6.80;;
20251;SDS011;10284;58.364;15.550;2024-01-07T12:28:54;11.38;;;6.47;;
20251;SDS011;10284;58.364;15.550;2024-01-07T12:31:22;11.85;;;6.65;;
20251;SDS011;10284;58.364;15.550;2024-01-07T12:33:48;12.60;;;6.82;;
20251;SDS011;10284;58.364;15.550;2024-01-07T12:36:13;10.77;;;6.50;;
20251;SDS011;10284;58.364;15.550;2024-01-07T12:38:40;14.48;;;6.43;;
20251;SDS011;10284;58.364;15.550;2024-01-07T12:41:06;12.13;;;6.75;;
20251;SDS011;10284;58.364;15.550;2024-01-07T12:43:31;12.13;;;6.13;;
20251;SDS011;10284;58.364;15.550;2024-01-07T12:45:57;9.60;;;6.07;;
20251;SDS011;10284;58.364;15.550;2024-01-07T12:48:26;11.48;;;6.05;;
20251;SDS011;10284;58.364;15.550;2024-01-07T12:50:51;8.70;;;5.53;;
20251;SDS011;10284;58.364;15.550;2024-01-07T12:53:17;10.07;;;5.57;;
20251;SDS011;10284;58.364;15.550;2024-01-07T12:55:43;9.00;;;5.50;;
20251;SDS011;10284;58.364;15.550;2024-01-07T12:58:08;9.77;;;5.68;;
20251;SDS011;10284;58.364;15.550;2024-01-07T13:00:34;9.35;;;5.00;;
20251;SDS011;10284;58.364;15.550;2024-01-07T13:03:00;9.25;;;5.60;;
20251;SDS011;10284;58.364;15.550;2024-01-07T13:05:25;9.43;;;5.03;;
20251;SDS011;10284;58.364;15.550;2024-01-07T13:07:51;7.70;;;4.90;;
20251;SDS011;10284;58.364;15.550;2024-01-07T13:10:16;11.35;;;5.32;;
20251;SDS011;10284;58.364;15.550;2024-01-07T13:12:42;10.27;;;5.57;;
20251;SDS011;10284;58.364;15.550;2024-01-07T13:15:08;7.38;;;5.47;;
20251;SDS011;10284;58.364;15.550;2024-01-07T13:17:33;12.75;;;5.43;;
20251;SDS011;10284;58.364;15.550;2024-01-07T13:19:59;8.82;;;4.97;;
20251;SDS011;10284;58.364;15.550;2024-01-07T13:22:25;8.30;;;4.88;;
20251;SDS011;10284;58.364;15.550;2024-01-07T13:24:50;11.00;;;5.88;;
20251;SDS011;10284;58.364;15.550;2024-01-07T13:27:16;7.40;;;4.85;;
20251;SDS011;10284;58.364;15.550;2024-01-07T13:29:43;8.00;;;5.13;;
20251;SDS011;10284;58.364;15.550;2024-01-07T13:32:12;8.45;;;4.88;;
20251;SDS011;10284;58.364;15.550;2024-01-07T13:34:37;10.00;;;5.10;;
20251;SDS011;10284;58.364;15.550;2024-01-07T13:37:03;9.07;;;5.05;;
20251;SDS011;10284;58.364;15.550;2024-01-07T13:39:28;11.13;;;5.00;;
20251;SDS011;10284;58.364;15.550;2024-01-07T13:41:55;8.18;;;5.05;;
20251;SDS011;10284;58.364;15.550;2024-01-07T13:44:20;9.73;;;5.10;;
20251;SDS011;10284;58.364;15.550;2024-01-07T13:46:46;10.35;;;5.50;;
20251;SDS011;10284;58.364;15.550;2024-01-07T13:49:15;10.68;;;5.25;;
20251;SDS011;10284;58.364;15.550;2024-01-07T13:51:41;9.95;;;5.43;;
20251;SDS011;10284;58.364;15.550;2024-01-07T13:54:07;9.52;;;5.57;;
20251;SDS011;10284;58.364;15.550;2024-01-07T13:56:34;7.47;;;4.60;;
20251;SDS011;10284;58.364;15.550;2024-01-07T13:59:01;8.48;;;5.10;;
20251;SDS011;10284;58.364;15.550;2024-01-07T14:01:30;11.88;;;5.80;;
20251;SDS011;10284;58.364;15.550;2024-01-07T14:03:56;11.10;;;5.95;;
20251;SDS011;10284;58.364;15.550;2024-01-07T14:06:21;9.35;;;5.13;;
20251;SDS011;10284;58.364;15.550;2024-01-07T14:08:47;8.88;;;5.05;;
20251;SDS011;10284;58.364;15.550;2024-01-07T14:11:12;10.50;;;5.10;;
20251;SDS011;10284;58.364;15.550;2024-01-07T14:13:37;8.55;;;5.00;;
20251;SDS011;10284;58.364;15.550;2024-01-07T14:16:03;8.43;;;5.15;;
20251;SDS011;10284;58.364;15.550;2024-01-07T14:18:29;11.15;;;5.15;;
20251;SDS011;10284;58.364;15.550;2024-01-07T14:20:54;7.35;;;4.82;;
20251;SDS011;10284;58.364;15.550;2024-01-07T14:23:19;8.80;;;4.85;;
20251;SDS011;10284;58.364;15.550;2024-01-07T14:25:45;8.00;;;4.75;;
20251;SDS011;10284;58.364;15.550;2024-01-07T14:28:11;7.95;;;5.25;;
20251;SDS011;10284;58.364;15.550;2024-01-07T14:30:37;7.45;;;5.38;;
20251;SDS011;10284;58.364;15.550;2024-01-07T14:33:03;9.18;;;6.10;;